createdAt,value
2018-06-11T00:02:59.969Z,98.40
2018-06-11T00:08:04.898Z,99.50
2018-06-11T00:13:09.482Z,99.00
2018-06-11T00:18:14.191Z,98.60
2018-06-11T00:23:19.077Z,98.70
2018-06-11T00:28:23.915Z,98.60
2018-06-11T00:33:28.646Z,98.90
2018-06-11T00:38:33.616Z,98.60
2018-06-11T00:43:38.511Z,97.90
2018-06-11T00:48:43.472Z,97.30
2018-06-11T00:53:48.192Z,97.30
2018-06-11T00:58:52.945Z,98.10
2018-06-11T01:03:57.884Z,99.50
2018-06-11T01:09:02.540Z,99.60
2018-06-11T01:14:07.232Z,99.60
2018-06-11T01:19:12.654Z,99.60
2018-06-11T01:24:17.472Z,99.30
2018-06-11T01:29:22.207Z,99.60
2018-06-11T01:34:27.414Z,99.60
2018-06-11T01:39:32.023Z,99.60
2018-06-11T01:44:36.899Z,99.60
2018-06-11T01:49:44.814Z,99.60
2018-06-11T01:54:49.744Z,99.60
2018-06-11T01:59:54.468Z,99.60
2018-06-11T02:04:59.324Z,99.60
2018-06-11T02:10:04.141Z,99.60
2018-06-11T02:15:08.868Z,99.60
2018-06-11T02:20:13.719Z,99.60
2018-06-11T02:25:18.434Z,99.60
2018-06-11T02:30:23.190Z,99.60
2018-06-11T02:35:28.046Z,99.60
2018-06-11T02:40:33.274Z,99.60
2018-06-11T02:45:38.132Z,99.60
2018-06-11T02:50:42.878Z,99.60
2018-06-11T02:55:47.578Z,99.60
2018-06-11T03:00:52.553Z,99.60
2018-06-11T03:05:57.874Z,99.60
2018-06-11T03:11:02.616Z,99.60
2018-06-11T03:16:07.358Z,99.60
2018-06-11T03:21:12.128Z,99.60
2018-06-11T03:26:16.832Z,99.60
2018-06-11T03:31:21.433Z,99.60
2018-06-11T03:36:26.101Z,99.60
2018-06-11T03:41:30.957Z,99.60
2018-06-11T03:46:35.671Z,99.60
2018-06-11T03:51:40.446Z,99.60
2018-06-11T03:56:45.355Z,99.60
2018-06-11T04:01:50.299Z,99.60
2018-06-11T04:06:55.041Z,99.60
2018-06-11T04:11:59.757Z,99.60
2018-06-11T04:17:05.119Z,99.60
2018-06-11T04:22:09.753Z,99.60
2018-06-11T04:27:14.542Z,99.60
2018-06-11T04:32:19.452Z,99.60
2018-06-11T04:37:24.660Z,99.60
2018-06-11T04:42:29.514Z,99.60
2018-06-11T04:47:34.226Z,99.60
2018-06-11T04:52:38.966Z,99.60
2018-06-11T04:57:43.694Z,99.60
2018-06-11T05:02:48.571Z,99.60
2018-06-11T05:07:53.274Z,99.60
2018-06-11T05:12:58.128Z,99.60
2018-06-11T05:18:02.898Z,99.60
2018-06-11T05:23:07.817Z,97.50
2018-06-11T05:28:12.640Z,96.40
2018-06-11T05:33:17.488Z,95.40
2018-06-11T05:38:22.334Z,94.70
2018-06-11T05:43:26.928Z,93.50
2018-06-11T05:48:32.011Z,92.00
2018-06-11T05:53:36.659Z,92.30
2018-06-11T05:58:41.193Z,92.70
2018-06-11T06:03:45.892Z,91.80
2018-06-11T06:08:50.621Z,91.30
2018-06-11T06:13:55.358Z,90.40
2018-06-11T06:19:00.574Z,90.10
2018-06-11T06:24:05.356Z,90.60
2018-06-11T06:29:10.187Z,90.40
2018-06-11T06:34:14.879Z,90.60
2018-06-11T06:39:19.678Z,90.30
2018-06-11T06:44:24.413Z,89.90
2018-06-11T06:49:29.252Z,88.90
2018-06-11T06:54:34.312Z,88.80
2018-06-11T06:59:39.222Z,87.70
2018-06-11T07:04:44.156Z,88.20
2018-06-11T07:09:49.437Z,88.50
2018-06-11T07:14:54.154Z,87.30
2018-06-11T07:19:58.880Z,88.40
2018-06-11T07:25:04.075Z,88.00
2018-06-11T07:30:08.722Z,89.70
2018-06-11T07:35:14.238Z,90.10
2018-06-11T07:40:19.055Z,90.40
2018-06-11T07:45:23.701Z,88.90
2018-06-11T07:50:28.638Z,89.30
2018-06-11T07:55:33.578Z,88.50
2018-06-11T08:00:38.282Z,88.90
2018-06-11T08:05:43.039Z,88.50
2018-06-11T08:10:47.687Z,87.80
2018-06-11T08:15:52.529Z,86.90
2018-06-11T08:20:57.350Z,87.00
2018-06-11T08:26:02.065Z,86.80
2018-06-11T08:31:06.917Z,86.10
2018-06-11T08:36:11.865Z,87.20
2018-06-11T08:41:16.605Z,85.30
2018-06-11T08:46:21.336Z,85.60
2018-06-11T08:51:26.044Z,86.10
2018-06-11T08:56:30.819Z,86.70
2018-06-11T09:01:35.648Z,85.70
2018-06-11T09:06:41.099Z,85.20
2018-06-11T09:11:45.838Z,85.70
2018-06-11T09:16:50.891Z,86.40
2018-06-11T09:21:55.848Z,85.70
2018-06-11T09:27:00.556Z,84.50
2018-06-11T09:32:05.268Z,85.10
2018-06-11T09:37:09.978Z,86.20
2018-06-11T09:42:14.763Z,84.90
2018-06-11T09:47:19.470Z,87.00
2018-06-11T09:52:24.161Z,86.80
2018-06-11T09:57:29.045Z,87.70
2018-06-11T10:02:34.012Z,87.00
2018-06-11T10:07:38.702Z,83.90
2018-06-11T10:12:43.844Z,83.50
2018-06-11T10:17:48.729Z,83.50
2018-06-11T10:22:53.578Z,84.40
2018-06-11T10:27:58.436Z,84.90
2018-06-11T10:33:03.204Z,84.70
2018-06-11T10:38:07.982Z,84.20
2018-06-11T10:43:17.811Z,84.90
2018-06-11T10:48:22.743Z,85.60
2018-06-11T10:53:27.507Z,85.50
2018-06-11T10:58:32.261Z,86.40
2018-06-11T11:08:41.583Z,86.50
2018-06-11T11:13:46.559Z,87.10
2018-06-11T11:23:55.782Z,86.90
2018-06-11T11:29:00.459Z,86.70
2018-06-11T11:34:05.174Z,86.90
2018-06-11T11:39:09.939Z,86.90
2018-06-11T11:44:14.647Z,87.60
2018-06-11T11:49:20.000Z,86.60
2018-06-11T11:54:24.763Z,87.20
2018-06-11T11:59:29.696Z,89.30
2018-06-11T12:04:34.449Z,89.20
2018-06-11T12:09:38.938Z,92.00
2018-06-11T12:14:43.700Z,91.60
2018-06-11T12:19:48.438Z,92.60
2018-06-11T12:24:53.152Z,93.60
2018-06-11T12:29:58.011Z,92.70
2018-06-11T12:40:07.073Z,93.90
2018-06-11T12:45:12.090Z,93.30
2018-06-11T12:50:16.570Z,92.60
2018-06-11T12:55:21.363Z,90.90
2018-06-11T13:00:25.901Z,91.30
2018-06-11T13:05:30.579Z,89.10
2018-06-11T13:10:35.362Z,87.10
2018-06-11T13:15:40.232Z,87.00
2018-06-11T13:20:45.041Z,85.80
2018-06-11T13:25:49.681Z,88.50
2018-06-11T13:30:54.442Z,89.60
2018-06-11T13:35:59.258Z,89.30
2018-06-11T13:41:04.194Z,89.10
2018-06-11T13:46:09.041Z,88.90
2018-06-11T13:51:14.082Z,88.80
2018-06-11T13:56:19.052Z,88.30
2018-06-11T14:01:24.085Z,89.00
2018-06-11T14:06:28.894Z,90.20
2018-06-11T14:11:33.587Z,89.70
2018-06-11T14:16:38.268Z,91.70
2018-06-11T14:21:43.142Z,90.90
2018-06-11T14:26:47.953Z,90.00
2018-06-11T14:31:52.798Z,92.90
2018-06-11T14:36:57.979Z,95.70
2018-06-11T14:42:03.411Z,95.00
2018-06-11T14:47:08.434Z,94.50
2018-06-11T14:52:13.277Z,93.20
2018-06-11T14:57:17.898Z,89.90
2018-06-11T15:02:22.613Z,89.30
2018-06-11T15:07:27.562Z,85.90
2018-06-11T15:12:32.257Z,84.00
2018-06-11T15:17:37.190Z,86.50
2018-06-11T15:22:41.874Z,89.30
2018-06-11T15:27:46.499Z,92.10
2018-06-11T15:32:51.986Z,93.80
2018-06-11T15:37:59.127Z,91.00
2018-06-11T15:43:03.878Z,89.50
2018-06-11T15:48:08.860Z,88.90
2018-06-11T15:53:13.697Z,89.20
2018-06-11T15:58:18.516Z,92.00
2018-06-11T16:03:23.185Z,93.20
2018-06-11T16:08:27.885Z,90.00
2018-06-11T16:18:37.048Z,82.10
2018-06-11T16:23:41.646Z,82.00
2018-06-11T16:28:46.488Z,86.50
2018-06-11T16:33:51.771Z,88.80
2018-06-11T16:38:56.405Z,91.00
2018-06-11T16:44:01.072Z,91.50
2018-06-11T16:49:05.898Z,91.60
2018-06-11T16:54:11.497Z,91.00
2018-06-11T16:59:16.167Z,91.10
2018-06-11T17:04:20.825Z,90.40
2018-06-11T17:09:25.742Z,90.70
2018-06-11T17:14:30.586Z,90.90
2018-06-11T17:24:39.539Z,90.70
2018-06-11T17:34:49.097Z,89.40
2018-06-11T17:39:53.725Z,88.30
2018-06-11T17:44:58.902Z,89.60
2018-06-11T17:50:03.832Z,90.00
2018-06-11T17:55:08.680Z,90.40
2018-06-11T18:05:17.581Z,91.80
2018-06-11T18:10:22.575Z,92.20
2018-06-11T18:15:27.526Z,92.20
2018-06-11T18:20:33.534Z,93.00
2018-06-11T18:25:38.330Z,94.00
2018-06-11T18:30:43.301Z,94.40
2018-06-11T18:35:48.099Z,94.80
2018-06-11T18:40:53.008Z,95.30
2018-06-11T18:45:57.851Z,96.00
2018-06-11T18:51:02.741Z,96.50
2018-06-11T18:56:07.768Z,96.70
2018-06-11T19:01:12.598Z,97.30
2018-06-11T19:06:17.443Z,97.70
2018-06-11T19:11:22.298Z,97.80
2018-06-11T19:16:27.140Z,98.30
2018-06-11T19:21:31.837Z,98.90
2018-06-11T19:26:36.908Z,98.90
2018-06-11T19:31:41.746Z,99.20
2018-06-11T19:36:46.740Z,98.30
2018-06-11T19:41:51.603Z,99.60
2018-06-11T19:46:56.339Z,99.10
2018-06-11T19:52:01.251Z,98.70
2018-06-11T19:57:06.446Z,99.00
2018-06-11T20:02:11.404Z,99.20
2018-06-11T20:07:16.830Z,99.00
2018-06-11T20:12:21.991Z,98.90
2018-06-11T20:17:30.821Z,99.10
2018-06-11T20:22:35.762Z,99.40
2018-06-11T20:27:40.552Z,99.60
2018-06-11T20:32:45.424Z,99.50
2018-06-11T20:37:50.266Z,99.30
2018-06-11T20:42:55.296Z,98.70
2018-06-11T20:48:00.127Z,99.10
2018-06-11T20:53:07.119Z,99.10
2018-06-11T20:58:11.890Z,99.10
2018-06-11T21:03:16.768Z,99.50
2018-06-11T21:08:21.640Z,99.60
2018-06-11T21:13:26.526Z,99.60
2018-06-11T21:18:31.536Z,99.60
2018-06-11T21:28:40.842Z,99.60
2018-06-11T21:33:45.615Z,99.60
2018-06-11T21:38:50.498Z,99.60
2018-06-11T21:43:55.411Z,99.60
2018-06-11T21:49:00.359Z,99.60
2018-06-11T21:54:05.179Z,99.60
2018-06-11T21:59:10.818Z,99.60
2018-06-11T22:04:15.559Z,99.60
2018-06-11T22:09:20.886Z,99.60
2018-06-11T22:14:25.884Z,99.60
2018-06-11T22:19:30.906Z,99.60
2018-06-11T22:24:35.655Z,99.60
2018-06-11T22:29:40.448Z,99.60
2018-06-11T22:34:45.334Z,99.60
2018-06-11T22:39:50.161Z,99.60
2018-06-11T22:44:55.005Z,99.60
2018-06-11T22:49:59.729Z,99.60
2018-06-11T22:55:04.443Z,99.60
2018-06-11T23:00:09.408Z,99.60
2018-06-11T23:05:14.130Z,99.60
2018-06-11T23:10:19.098Z,99.60
2018-06-11T23:15:24.146Z,99.60
2018-06-11T23:20:28.957Z,99.60
2018-06-11T23:25:33.734Z,99.60
2018-06-11T23:30:38.651Z,99.60
2018-06-11T23:35:43.879Z,99.60
2018-06-11T23:40:48.844Z,99.60
2018-06-11T23:45:53.673Z,99.60
2018-06-11T23:56:02.748Z,99.60
